Time;durP1;ratioP1;P1;durP2;ratioP2;P2;SDS_P1;SDS_P2;PMS_P1;PMS_P2;Temp;Humidity;BMP_temperature;BMP_pressure;BME280_temperature;BME280_humidity;BME280_pressure;Samples;Min_cycle;Max_cycle;Signal;HPM_P1;HPM_P2
2022/05/05 00:01:46;;;;;;;19.30;12.68;;;4.40;99.90;;;;;;5093917;28;20957;-42
2022/05/05 00:04:12;;;;;;;22.88;12.35;;;;;;;;;;5094315;28;20027;-45
2022/05/05 00:06:38;;;;;;;21.15;11.52;;;;;;;;;;5093890;28;20142;-45
2022/05/05 00:09:06;;;;;;;16.85;10.63;;;4.30;99.90;;;;;;5095360;28;20059;-46
2022/05/05 00:14:23;;;;;;;21.15;12.02;;;;;;;;;;5093435;28;20100;-45
2022/05/05 00:16:49;;;;;;;19.23;11.40;;;;;;;;;;5094449;28;20079;-44
2022/05/05 00:19:15;;;;;;;18.63;11.60;;;;;;;;;;5093833;28;20040;-42
2022/05/05 00:21:41;;;;;;;19.45;11.68;;;;;;;;;;5093854;28;20036;-44
2022/05/05 00:24:08;;;;;;;16.83;11.45;;;4.20;99.90;;;;;;5094339;28;20413;-48
2022/05/05 00:26:34;;;;;;;18.42;12.13;;;;;;;;;;5094279;28;20523;-44
2022/05/05 00:29:00;;;;;;;21.48;14.05;;;;;;;;;;5093397;28;20039;-48
2022/05/05 00:31:27;;;;;;;20.70;12.25;;;;;;;;;;5092976;28;20104;-42
2022/05/05 00:33:53;;;;;;;20.25;12.00;;;;;;;;;;5093844;28;20104;-43
2022/05/05 00:36:19;;;;;;;17.98;12.60;;;;;;;;;;5092919;28;20225;-44
2022/05/05 00:38:48;;;;;;;21.27;12.98;;;4.20;99.90;;;;;;5093298;28;20050;-42
2022/05/05 00:41:14;;;;;;;20.35;13.30;;;;;;;;;;5092606;28;20715;-43
2022/05/05 00:43:40;;;;;;;19.50;11.90;;;;;;;;;;5092163;28;21247;-43
2022/05/05 00:46:07;;;;;;;18.98;12.20;;;4.40;99.90;;;;;;5092841;28;20262;-44
2022/05/05 00:48:33;;;;;;;18.58;11.55;;;;;;;;;;5093536;28;20175;-44
2022/05/05 00:51:00;;;;;;;18.25;11.27;;;;;;;;;;5092467;28;20047;-42
2022/05/05 00:53:26;;;;;;;15.43;12.02;;;;;;;;;;5092844;28;20047;-43
2022/05/05 00:55:58;;;;;;;19.73;11.95;;;4.60;99.90;;;;;;5093248;28;20499;-46
2022/05/05 00:58:25;;;;;;;18.23;10.07;;;4.60;99.90;;;;;;5094006;28;20405;-48
2022/05/05 01:00:52;;;;;;;15.32;11.27;;;;;;;;;;5092375;28;20404;-43
2022/05/05 01:03:18;;;;;;;18.95;11.27;;;;;;;;;;5093102;28;20044;-44
2022/05/05 01:05:44;;;;;;;21.10;10.88;;;4.80;99.90;;;;;;5090692;28;20047;-43
2022/05/05 01:08:11;;;;;;;17.27;11.77;;;;;;;;;;5092383;28;20031;-47
2022/05/05 01:10:37;;;;;;;17.65;11.57;;;;;;;;;;5093051;28;20757;-43
2022/05/05 01:13:03;;;;;;;22.20;10.85;;;;;;;;;;5091661;28;20088;-43
2022/05/05 01:15:30;;;;;;;18.90;10.90;;;4.80;99.90;;;;;;5091827;28;20688;-44
2022/05/05 01:17:56;;;;;;;18.30;10.35;;;;;;;;;;5093078;28;20063;-45
2022/05/05 01:20:22;;;;;;;16.63;10.30;;;;;;;;;;5091867;28;20055;-44
2022/05/05 01:22:50;;;;;;;19.90;11.50;;;5.00;99.90;;;;;;5093498;28;20044;-45
2022/05/05 01:28:14;;;;;;;15.75;10.00;;;;;;;;;;5094082;28;20058;-46
2022/05/05 01:30:45;;;;;;;20.83;9.68;;;5.20;99.90;;;;;;5093177;28;20100;-42
2022/05/05 01:33:11;;;;;;;22.02;10.10;;;;;;;;;;5093225;28;20484;-42
2022/05/05 01:35:37;;;;;;;16.00;8.68;;;;;;;;;;5093471;28;20039;-46
2022/05/05 01:38:03;;;;;;;14.93;8.55;;;;;;;;;;5092453;28;20697;-44
2022/05/05 01:40:30;;;;;;;16.50;7.00;;;;;;;;;;5093015;28;20051;-43
2022/05/05 01:42:56;;;;;;;13.98;7.68;;;;;;;;;;5091750;28;20043;-46
2022/05/05 01:45:22;;;;;;;15.25;9.15;;;;;;;;;;5092622;28;20074;-44
2022/05/05 01:47:48;;;;;;;14.80;8.70;;;;;;;;;;5093270;28;20573;-44
2022/05/05 01:50:14;;;;;;;13.73;8.63;;;;;;;;;;5093372;28;20093;-44
2022/05/05 01:52:40;;;;;;;17.48;9.00;;;;;;;;;;5092125;28;20043;-46
2022/05/05 01:55:06;;;;;;;14.98;8.25;;;;;;;;;;5090308;28;20043;-43
2022/05/05 01:57:32;;;;;;;14.65;7.00;;;5.40;99.90;;;;;;5093754;28;20759;-42
2022/05/05 02:00:03;;;;;;;14.75;7.68;;;5.50;99.90;;;;;;5093599;28;20032;-44
2022/05/05 02:02:29;;;;;;;12.57;7.18;;;;;;;;;;5092008;28;20039;-45
2022/05/05 02:04:55;;;;;;;15.35;7.72;;;;;;;;;;5092329;28;20455;-46
2022/05/05 02:07:23;;;;;;;19.50;7.50;;;5.70;99.90;;;;;;5092017;28;20188;-47
2022/05/05 02:09:49;;;;;;;15.95;7.72;;;;;;;;;;5089928;28;20044;-43
2022/05/05 02:12:15;;;;;;;20.45;7.32;;;;;;;;;;5091673;28;20555;-44
2022/05/05 02:14:41;;;;;;;18.35;8.32;;;;;;;;;;5092814;28;20123;-44
2022/05/05 02:17:09;;;;;;;15.13;7.55;;;;;;;;;;5093649;28;20050;-43
2022/05/05 02:19:35;;;;;;;15.38;8.20;;;;;;;;;;5095025;28;20110;-45
2022/05/05 02:22:04;;;;;;;16.92;8.45;;;5.40;99.90;;;;;;5095584;28;20269;-46
2022/05/05 02:24:30;;;;;;;17.08;7.63;;;;;;;;;;5094876;28;20031;-44
2022/05/05 02:26:56;;;;;;;15.98;7.45;;;;;;;;;;5096689;28;20049;-43
2022/05/05 02:29:22;;;;;;;18.20;7.60;;;;;;;;;;5096537;28;20483;-46
2022/05/05 02:31:48;;;;;;;11.38;7.00;;;;;;;;;;5095526;28;20042;-45
2022/05/05 02:34:14;;;;;;;12.18;7.90;;;;;;;;;;5094707;28;20198;-45
2022/05/05 02:39:25;;;;;;;12.88;7.97;;;;;;;;;;5096186;28;20687;-44
2022/05/05 02:41:51;;;;;;;17.33;7.90;;;;;;;;;;5096131;28;20860;-46
2022/05/05 02:44:17;;;;;;;12.50;7.72;;;;;;;;;;5095736;28;20484;-44
2022/05/05 02:46:44;;;;;;;16.67;7.18;;;;;;;;;;5096695;28;20139;-45
2022/05/05 02:49:13;;;;;;;14.05;6.90;;;5.00;99.90;;;;;;5096597;28;20044;-42
2022/05/05 02:51:39;;;;;;;14.93;7.93;;;;;;;;;;5096043;28;20040;-44
2022/05/05 02:56:50;;;;;;;16.05;8.52;;;;;;;;;;5095593;28;20058;-43
2022/05/05 02:59:16;;;;;;;15.50;7.97;;;;;;;;;;5097083;28;20138;-45
2022/05/05 03:01:42;;;;;;;16.85;9.18;;;;;;;;;;5096194;28;20040;-43
2022/05/05 03:04:09;;;;;;;13.63;7.78;;;4.80;99.90;;;;;;5095142;28;20031;-45
2022/05/05 03:06:36;;;;;;;16.58;8.50;;;;;;;;;;5094735;28;21063;-45
2022/05/05 03:09:02;;;;;;;18.50;8.98;;;;;;;;;;5095529;28;20043;-44
2022/05/05 03:11:29;;;;;;;12.82;7.43;;;4.60;99.90;;;;;;5094887;28;20142;-43
2022/05/05 03:13:55;;;;;;;17.13;8.05;;;;;;;;;;5094869;28;20070;-44
2022/05/05 03:16:21;;;;;;;15.50;7.70;;;;;;;;;;5094755;28;20644;-43
2022/05/05 03:18:47;;;;;;;16.85;8.32;;;;;;;;;;5095964;28;20476;-43
2022/05/05 03:21:14;;;;;;;17.30;8.50;;;;;;;;;;5094260;28;20054;-43
2022/05/05 03:23:40;;;;;;;12.55;7.55;;;;;;;;;;5093650;28;20032;-43
2022/05/05 03:26:07;;;;;;;12.60;7.35;;;4.40;99.90;;;;;;5094302;28;20738;-43
2022/05/05 03:28:33;;;;;;;14.55;7.90;;;;;;;;;;5095306;28;20502;-42
2022/05/05 03:30:59;;;;;;;14.80;7.47;;;;;;;;;;5095562;28;20499;-42
2022/05/05 03:33:27;;;;;;;15.15;8.82;;;4.60;99.90;;;;;;5094565;28;20050;-43
2022/05/05 03:35:53;;;;;;;14.00;8.15;;;;;;;;;;5092520;28;20843;-44
2022/05/05 03:38:19;;;;;;;20.50;8.73;;;;;;;;;;5094449;28;20777;-42
2022/05/05 03:40:47;;;;;;;20.02;9.15;;;4.70;99.90;;;;;;5094686;28;20116;-43
2022/05/05 03:43:13;;;;;;;14.77;8.80;;;;;;;;;;5093688;28;20051;-43
2022/05/05 03:45:39;;;;;;;12.10;8.20;;;;;;;;;;5093480;28;20044;-44
2022/05/05 03:48:08;;;;;;;15.65;9.23;;;4.60;99.90;;;;;;5093352;28;20052;-44
2022/05/05 03:50:34;;;;;;;13.65;8.23;;;;;;;;;;5094614;28;20038;-44
2022/05/05 03:53:00;;;;;;;12.90;8.55;;;;;;;;;;5094700;28;20043;-43
2022/05/05 03:55:29;;;;;;;15.85;9.05;;;4.60;99.90;;;;;;5094338;28;20052;-45
2022/05/05 03:57:55;;;;;;;15.20;9.52;;;;;;;;;;5094248;28;20074;-44
2022/05/05 04:00:22;;;;;;;15.63;8.50;;;;;;;;;;5094746;28;20120;-45
2022/05/05 04:03:30;;;;;;;17.15;9.20;;;4.70;99.90;;;;;;5094920;28;20440;-42
2022/05/05 04:05:36;;;;;;;13.65;8.65;;;4.80;99.90;;;;;;5094540;28;20204;-44
2022/05/05 04:08:03;;;;;;;15.27;9.07;;;;;;;;;;5093826;28;20036;-43
2022/05/05 04:10:29;;;;;;;17.38;8.95;;;;;;;;;;5095047;28;20039;-43
2022/05/05 04:12:57;;;;;;;14.88;8.80;;;5.00;99.90;;;;;;5093612;28;20047;-45
2022/05/05 04:15:23;;;;;;;15.13;8.52;;;;;;;;;;5093551;28;20039;-46
2022/05/05 04:17:49;;;;;;;16.15;9.23;;;;;;;;;;5094535;28;20085;-46
2022/05/05 04:20:15;;;;;;;15.10;8.73;;;;;;;;;;5092898;28;20043;-47
2022/05/05 04:22:43;;;;;;;17.83;10.65;;;5.20;99.90;;;;;;5093477;28;20044;-45
2022/05/05 04:25:09;;;;;;;15.27;8.98;;;;;;;;;;5092552;28;20224;-43
2022/05/05 04:27:40;;;;;;;18.63;9.10;;;5.30;99.90;;;;;;5093325;28;20507;-43
2022/05/05 04:30:08;;;;;;;17.30;8.90;;;5.40;99.90;;;;;;5093947;28;20154;-43
2022/05/05 04:32:34;;;;;;;27.63;9.55;;;;;;;;;;5092889;28;20039;-45
2022/05/05 04:35:00;;;;;;;15.77;9.27;;;;;;;;;;5092228;28;20172;-43
2022/05/05 04:37:26;;;;;;;15.82;8.90;;;;;;;;;;5092187;28;20075;-44
2022/05/05 04:39:52;;;;;;;21.52;8.45;;;;;;;;;;5092485;28;20063;-43
2022/05/05 04:42:18;;;;;;;18.42;9.27;;;;;;;;;;5092417;28;20463;-45
2022/05/05 04:44:44;;;;;;;14.32;9.10;;;;;;;;;;5093588;28;20040;-45
2022/05/05 04:47:10;;;;;;;17.67;9.43;;;;;;;;;;5092088;28;20515;-44
2022/05/05 04:49:37;;;;;;;19.95;8.98;;;5.60;99.90;;;;;;5092401;28;20590;-48
2022/05/05 04:52:06;;;;;;;15.95;7.97;;;5.50;99.90;;;;;;5091826;28;20374;-44
2022/05/05 04:54:32;;;;;;;17.70;8.35;;;;;;;;;;5093182;28;20048;-48
2022/05/05 04:56:58;;;;;;;17.42;9.02;;;;;;;;;;5092021;28;20036;-45
2022/05/05 04:59:26;;;;;;;16.88;8.75;;;5.60;99.90;;;;;;5093853;28;20047;-44
2022/05/05 05:01:52;;;;;;;15.07;8.63;;;;;;;;;;5093405;28;20044;-46
2022/05/05 05:04:18;;;;;;;18.42;9.68;;;;;;;;;;5092736;28;20044;-46
2022/05/05 05:06:44;;;;;;;15.05;7.70;;;5.70;99.90;;;;;;5092741;28;20156;-45
2022/05/05 05:09:10;;;;;;;13.80;7.63;;;;;;;;;;5090785;28;20058;-46
2022/05/05 05:11:36;;;;;;;16.35;8.70;;;;;;;;;;5091983;28;20043;-47
2022/05/05 05:14:02;;;;;;;15.77;9.18;;;;;;;;;;5092333;28;20162;-45
2022/05/05 05:16:28;;;;;;;16.50;9.23;;;;;;;;;;5093239;28;20077;-46
2022/05/05 05:18:54;;;;;;;15.05;8.60;;;6.10;99.90;;;;;;5093482;28;20403;-45
2022/05/05 05:21:20;;;;;;;14.35;8.48;;;6.00;99.90;;;;;;5092267;28;20040;-45
2022/05/05 05:23:46;;;;;;;13.52;9.35;;;6.10;99.90;;;;;;5091952;28;20070;-45
2022/05/05 05:26:13;;;;;;;19.77;9.38;;;6.20;99.90;;;;;;5092895;28;20150;-45
2022/05/05 05:28:39;;;;;;;16.52;9.10;;;;;;;;;;5091671;28;20050;-44
2022/05/05 05:31:05;;;;;;;16.63;9.48;;;6.40;99.90;;;;;;5092873;28;20062;-47
2022/05/05 05:33:31;;;;;;;19.45;9.70;;;6.50;99.90;;;;;;5092344;28;20039;-43
2022/05/05 05:35:57;;;;;;;21.58;10.43;;;6.50;99.90;;;;;;5092508;28;20043;-44
2022/05/05 05:38:22;;;;;;;19.85;10.20;;;6.70;99.90;;;;;;5091565;28;20132;-44
2022/05/05 05:40:48;;;;;;;24.92;12.77;;;6.80;99.90;;;;;;5091014;28;20090;-48
2022/05/05 05:43:14;;;;;;;18.38;9.40;;;6.90;99.90;;;;;;5093610;28;20776;-46
2022/05/05 05:45:40;;;;;;;16.08;9.45;;;7.10;99.90;;;;;;5091031;28;20036;-46
2022/05/05 05:48:06;;;;;;;18.23;10.05;;;7.20;99.90;;;;;;5091195;28;20052;-44
2022/05/05 05:50:32;;;;;;;15.95;8.80;;;7.20;99.90;;;;;;5086134;28;20048;-44
2022/05/05 05:52:59;;;;;;;18.35;9.70;;;7.10;99.90;;;;;;5095092;28;20078;-45
2022/05/05 05:55:26;;;;;;;17.95;10.35;;;9.10;99.90;;;;;;5096251;28;20047;-44
2022/05/05 05:57:52;;;;;;;17.42;8.77;;;7.50;99.90;;;;;;5095875;28;20047;-45
2022/05/05 06:00:18;;;;;;;15.15;8.88;;;7.60;99.90;;;;;;5096862;28;20895;-44
2022/05/05 06:05:28;;;;;;;18.80;8.70;;;8.00;99.90;;;;;;5095829;28;20135;-45
2022/05/05 06:08:02;;;;;;;18.55;8.93;;;8.90;99.90;;;;;;5095570;28;20506;-45
2022/05/05 06:10:28;;;;;;;16.55;9.10;;;8.20;99.90;;;;;;5096329;28;20031;-45
2022/05/05 06:12:54;;;;;;;13.20;9.23;;;8.10;99.90;;;;;;5095485;28;20043;-47
2022/05/05 06:15:22;;;;;;;16.92;9.50;;;9.30;99.90;;;;;;5095532;28;20032;-47
2022/05/05 06:17:51;;;;;;;15.90;9.73;;;8.60;99.90;;;;;;5096158;28;20039;-45
2022/05/05 06:20:17;;;;;;;16.17;8.80;;;8.50;99.90;;;;;;5092036;28;20051;-46
2022/05/05 06:22:43;;;;;;;18.65;9.50;;;8.70;99.90;;;;;;5095458;28;20096;-46
2022/05/05 06:25:11;;;;;;;16.67;8.65;;;8.80;99.90;;;;;;5095505;28;20043;-47
2022/05/05 06:27:38;;;;;;;17.27;9.02;;;8.90;99.90;;;;;;5096143;28;20114;-50
2022/05/05 06:30:05;;;;;;;14.02;7.93;;;10.10;99.90;;;;;;5096706;27;20122;-48
2022/05/05 06:32:31;;;;;;;15.02;8.93;;;9.20;99.90;;;;;;5095129;28;20086;-45
2022/05/05 06:34:56;;;;;;;18.05;8.88;;;10.10;99.90;;;;;;5095966;28;20126;-47
2022/05/05 06:37:25;;;;;;;17.90;9.23;;;10.00;99.90;;;;;;5096623;28;20048;-46
2022/05/05 06:39:53;;;;;;;16.45;8.20;;;9.60;99.90;;;;;;5095231;28;20073;-46
2022/05/05 06:42:19;;;;;;;16.55;8.27;;;10.60;99.90;;;;;;5095156;28;20126;-44
2022/05/05 06:44:44;;;;;;;15.88;9.40;;;9.70;99.90;;;;;;5096424;28;20039;-49
2022/05/05 06:47:12;;;;;;;16.92;8.85;;;10.90;99.90;;;;;;5095316;28;20636;-46
2022/05/05 06:49:38;;;;;;;16.58;9.43;;;10.10;99.90;;;;;;5095144;28;20036;-48
2022/05/05 06:52:04;;;;;;;17.50;9.73;;;9.90;99.90;;;;;;5094643;28;20043;-47
2022/05/05 06:54:30;;;;;;;15.18;9.20;;;9.90;99.90;;;;;;5096096;28;20074;-46
2022/05/05 06:56:56;;;;;;;16.10;9.63;;;10.20;99.90;;;;;;5093007;28;20142;-51
2022/05/05 06:59:22;;;;;;;18.65;9.77;;;11.10;99.90;;;;;;5094455;28;20063;-48
2022/05/05 07:01:54;;;;;;;17.30;9.15;;;10.30;99.90;;;;;;5094657;28;20054;-46
2022/05/05 07:07:13;;;;;;;19.05;9.70;;;10.50;99.90;;;;;;5094256;28;21265;-50
2022/05/05 07:12:24;;;;;;;16.88;10.60;;;10.40;99.90;;;;;;5094744;28;20051;-49
2022/05/05 07:14:50;;;;;;;18.17;9.57;;;10.70;99.90;;;;;;5092810;28;20043;-50
2022/05/05 07:17:16;;;;;;;15.05;9.75;;;12.40;99.90;;;;;;5093831;28;20044;-46
2022/05/05 07:19:42;;;;;;;12.85;8.45;;;13.00;99.90;;;;;;5094219;28;20072;-51
2022/05/05 07:22:08;;;;;;;15.57;8.70;;;12.10;99.90;;;;;;5094782;28;20043;-45
2022/05/05 07:24:34;;;;;;;14.63;8.50;;;10.90;99.90;;;;;;5093242;28;20039;-46
2022/05/05 07:27:01;;;;;;;15.50;8.48;;;11.20;99.90;;;;;;5093754;28;20710;-45
2022/05/05 07:29:27;;;;;;;15.35;7.93;;;13.30;99.90;;;;;;5095229;28;20135;-45
2022/05/05 07:31:53;;;;;;;12.77;7.97;;;11.50;99.90;;;;;;5094066;28;20073;-45
2022/05/05 07:34:22;;;;;;;19.35;7.70;;;12.30;99.90;;;;;;5093400;28;20407;-46
2022/05/05 07:36:48;;;;;;;13.88;6.30;;;12.20;99.90;;;;;;5092455;28;20043;-45
2022/05/05 07:39:14;;;;;;;10.82;7.03;;;11.80;99.90;;;;;;5092695;28;20039;-45
2022/05/05 07:41:41;;;;;;;15.10;7.57;;;14.10;99.90;;;;;;5094255;28;20393;-50
2022/05/05 07:44:06;;;;;;;15.80;6.30;;;11.90;99.90;;;;;;5095794;28;20150;-50
2022/05/05 07:46:36;;;;;;;12.48;6.35;;;12.20;99.90;;;;;;5094504;28;20131;-50
2022/05/05 07:49:04;;;;;;;13.75;6.28;;;13.60;99.90;;;;;;5093989;28;20082;-45
2022/05/05 07:51:30;;;;;;;16.67;6.85;;;12.50;99.90;;;;;;5094815;28;20035;-45
2022/05/05 07:56:42;;;;;;;13.57;6.53;;;12.80;99.90;;;;;;5093713;28;20691;-46
2022/05/05 07:59:08;;;;;;;12.95;6.30;;;13.90;99.90;;;;;;5094887;28;20665;-47
2022/05/05 08:01:33;;;;;;;11.45;5.78;;;13.60;99.90;;;;;;5094863;28;20051;-47
2022/05/05 08:03:59;;;;;;;10.27;5.80;;;12.90;99.90;;;;;;5095128;28;20133;-47
2022/05/05 08:06:25;;;;;;;13.95;6.25;;;13.70;99.90;;;;;;5093337;28;20430;-46
2022/05/05 08:08:51;;;;;;;18.10;6.00;;;13.10;99.90;;;;;;5092951;28;20028;-45
2022/05/05 08:11:20;;;;;;;14.45;5.45;;;13.90;99.90;;;;;;5087628;28;20372;-47
2022/05/05 08:13:46;;;;;;;15.38;5.88;;;13.10;99.90;;;;;;5094348;28;20068;-48
2022/05/05 08:16:12;;;;;;;15.18;6.00;;;14.30;99.90;;;;;;5093285;28;20660;-47
2022/05/05 08:18:38;;;;;;;10.35;5.05;;;13.70;99.90;;;;;;5091068;28;20540;-45
2022/05/05 08:21:10;;;;;;;10.65;4.60;;;14.00;99.90;;;;;;5093761;28;20039;-45
2022/05/05 08:23:37;;;;;;;14.10;5.50;;;15.50;99.90;;;;;;5093254;28;20043;-46
2022/05/05 08:28:47;;;;;;;11.13;4.13;;;14.70;99.90;;;;;;5093410;28;20941;-47
2022/05/05 08:31:13;;;;;;;11.45;4.93;;;15.00;99.90;;;;;;5094363;28;20047;-50
2022/05/05 08:33:39;;;;;;;10.38;4.47;;;15.30;99.90;;;;;;5092463;28;20062;-49
2022/05/05 08:36:06;;;;;;;12.80;4.60;;;15.80;99.90;;;;;;5093155;28;20043;-48
2022/05/05 08:38:33;;;;;;;13.15;4.78;;;16.10;99.90;;;;;;5092665;28;20039;-49
2022/05/05 08:40:59;;;;;;;10.38;4.40;;;16.30;99.90;;;;;;5094055;28;20031;-45
2022/05/05 08:43:27;;;;;;;15.35;4.85;;;17.10;99.90;;;;;;5091477;28;20405;-46
2022/05/05 08:45:55;;;;;;;11.23;5.18;;;16.20;99.90;;;;;;5092718;28;20036;-46
2022/05/05 08:48:21;;;;;;;15.18;4.75;;;16.30;99.90;;;;;;5093520;28;20032;-46
2022/05/05 08:50:56;;;;;;;10.10;4.60;;;16.30;99.90;;;;;;5093783;28;20043;-45
2022/05/05 08:53:29;;;;;;;12.02;4.93;;;16.80;99.90;;;;;;5092413;28;20139;-46
2022/05/05 08:55:57;;;;;;;7.70;4.45;;;16.80;99.90;;;;;;5093351;28;20034;-46
2022/05/05 08:58:22;;;;;;;331.10;268.10;;;16.50;99.90;;;;;;5092994;28;20043;-44
2022/05/05 09:00:54;;;;;;;328.80;124.85;;;16.70;99.90;;;;;;5094950;28;20039;-49
2022/05/05 09:03:21;;;;;;;47.33;26.67;;;17.00;99.90;;;;;;5091367;28;20046;-48
2022/05/05 09:05:48;;;;;;;32.13;9.68;;;16.70;99.90;;;;;;5091587;28;21405;-47
2022/05/05 09:08:27;;;;;;;37.30;33.58;;;18.80;99.90;;;;;;5091991;28;20062;-45
2022/05/05 09:10:55;;;;;;;34.40;27.63;;;17.60;99.90;;;;;;5093607;28;20071;-46
2022/05/05 09:13:28;;;;;;;36.35;25.45;;;20.00;99.90;;;;;;5092658;28;20211;-47
2022/05/05 09:15:54;;;;;;;439.58;256.20;;;18.10;99.90;;;;;;5092828;28;20032;-46
2022/05/05 09:18:31;;;;;;;849.80;491.13;;;18.40;99.90;;;;;;5093648;28;21263;-45
2022/05/05 09:20:59;;;;;;;1201.70;756.67;;;18.40;99.90;;;;;;5094108;28;20049;-46
2022/05/05 09:26:37;;;;;;;900.63;808.05;;;18.50;99.90;;;;;;5094209;28;20078;-49
2022/05/05 09:29:23;;;;;;;780.92;711.33;;;18.40;99.90;;;;;;5096995;28;20047;-48
2022/05/05 09:31:50;;;;;;;739.13;676.58;;;20.40;99.90;;;;;;5098293;28;20040;-45
2022/05/05 09:34:19;;;;;;;682.75;625.20;;;19.90;99.90;;;;;;5097711;28;20039;-48
2022/05/05 09:36:47;;;;;;;588.38;544.00;;;18.50;99.90;;;;;;5097942;28;20096;-46
2022/05/05 09:39:16;;;;;;;517.28;479.15;;;18.50;99.90;;;;;;5098389;28;20047;-46
2022/05/05 09:41:47;;;;;;;425.50;395.83;;;18.60;99.90;;;;;;5095832;28;20043;-48
2022/05/05 09:44:21;;;;;;;475.60;443.05;;;18.50;99.90;;;;;;5095717;28;20492;-48
2022/05/05 09:46:48;;;;;;;421.25;390.42;;;18.60;99.90;;;;;;5096662;28;20082;-48
2022/05/05 09:49:16;;;;;;;401.02;371.63;;;18.60;99.90;;;;;;5095557;28;20119;-48
2022/05/05 09:57:40;;;;;;;383.85;357.33;;;19.10;99.90;;;;;;5096898;28;20055;-48
2022/05/05 10:05:46;;;;;;;434.48;396.80;;;18.60;99.90;;;;;;5093527;28;20051;-50
2022/05/05 10:08:15;;;;;;;426.10;395.98;;;19.40;99.90;;;;;;5096472;28;20043;-50
2022/05/05 10:10:42;;;;;;;535.85;490.02;;;18.30;99.90;;;;;;5097031;28;20048;-47
2022/05/05 10:13:12;;;;;;;390.55;363.02;;;18.20;99.90;;;;;;5095314;28;20039;-47
2022/05/05 10:15:40;;;;;;;373.65;347.77;;;18.40;99.90;;;;;;5096738;28;20058;-47
2022/05/05 10:18:06;;;;;;;383.55;356.90;;;18.90;99.90;;;;;;5095558;28;20033;-46
2022/05/05 10:20:33;;;;;;;411.90;382.30;;;18.50;99.90;;;;;;5096125;28;20103;-46
2022/05/05 10:23:19;;;;;;;407.35;376.73;;;18.40;99.90;;;;;;5095707;28;20071;-45
2022/05/05 10:25:52;;;;;;;420.73;392.80;;;18.50;99.90;;;;;;5093839;28;20122;-49
2022/05/05 10:28:39;;;;;;;416.60;387.60;;;18.60;99.90;;;;;;5093691;28;20622;-47
2022/05/05 10:31:11;;;;;;;406.05;377.65;;;18.60;99.90;;;;;;5032693;28;20049;-47
2022/05/05 10:33:54;;;;;;;;;;;18.50;99.90;;;;;;5033277;28;20627;-49
2022/05/05 10:36:24;;;;;;;438.67;406.90;;;18.80;99.90;;;;;;5032094;28;20187;-48
2022/05/05 10:38:51;;;;;;;341.85;319.20;;;21.30;99.90;;;;;;5032194;28;20183;-45
2022/05/05 10:41:39;;;;;;;297.75;267.13;;;19.80;99.90;;;;;;5034391;28;20072;-47
2022/05/05 10:44:16;;;;;;;626.70;577.70;;;18.80;99.90;;;;;;5033407;28;20172;-48
2022/05/05 10:47:02;;;;;;;512.60;470.92;;;18.90;99.90;;;;;;5031372;28;20053;-52
2022/05/05 10:49:31;;;;;;;352.77;326.20;;;18.70;99.90;;;;;;5032685;28;20064;-47
2022/05/05 10:52:12;;;;;;;534.00;490.42;;;18.90;99.90;;;;;;5032286;28;20568;-49
2022/05/05 10:54:38;;;;;;;69.00;63.05;;;20.00;99.90;;;;;;5031828;28;20048;-47
2022/05/05 10:57:41;;;;;;;613.97;562.10;;;19.00;99.90;;;;;;5031889;28;20045;-47
2022/05/05 11:00:10;;;;;;;579.30;534.33;;;19.00;99.90;;;;;;5033262;28;20060;-47
2022/05/05 11:02:37;;;;;;;603.53;556.22;;;19.20;99.90;;;;;;5032190;28;20226;-50
2022/05/05 11:05:29;;;;;;;313.17;257.85;;;19.20;99.90;;;;;;5031452;28;20056;-45
2022/05/05 11:08:17;;;;;;;228.53;205.63;;;18.90;99.90;;;;;;5005729;28;20084;-47
2022/05/05 11:13:39;;;;;;;438.02;398.77;;;19.00;99.90;;;;;;4992484;28;20077;-45
2022/05/05 11:22:24;;;;;;;432.00;401.30;;;19.20;99.90;;;;;;4952605;28;20504;-48
2022/05/05 11:24:51;;;;;;;517.72;478.92;;;19.30;99.90;;;;;;4951288;28;20065;-47
2022/05/05 11:27:24;;;;;;;493.10;457.88;;;19.50;99.90;;;;;;4953180;28;20050;-46
2022/05/05 11:29:56;;;;;;;425.33;395.98;;;19.80;99.90;;;;;;4951468;28;20065;-49
2022/05/05 11:32:29;;;;;;;381.10;355.40;;;19.80;99.90;;;;;;4952591;28;20165;-46
2022/05/05 11:34:55;;;;;;;603.00;556.90;;;21.60;99.90;;;;;;4951317;28;20074;-46
2022/05/05 11:37:21;;;;;;;647.78;595.83;;;22.30;99.90;;;;;;4952757;28;20069;-47
2022/05/05 11:39:48;;;;;;;791.00;712.20;;;20.30;99.90;;;;;;4938292;28;20764;-45
2022/05/05 11:42:14;;;;;;;671.97;611.92;;;20.40;99.90;;;;;;4952975;28;20068;-49
2022/05/05 11:44:43;;;;;;;676.92;618.72;;;20.40;99.90;;;;;;4968513;28;20062;-46
2022/05/05 11:47:14;;;;;;;636.80;584.47;;;20.70;99.90;;;;;;5001989;28;20537;-50
2022/05/05 11:49:43;;;;;;;767.92;700.22;;;20.80;99.90;;;;;;5048915;28;20131;-46
2022/05/05 11:52:15;;;;;;;738.20;669.78;;;20.80;99.90;;;;;;5043532;28;20402;-51
2022/05/05 11:54:41;;;;;;;670.50;610.75;;;20.60;99.90;;;;;;5058001;28;20051;-49
2022/05/05 11:57:06;;;;;;;304.02;272.40;;;20.40;99.90;;;;;;5093635;28;20063;-48
2022/05/05 12:02:19;;;;;;;572.78;518.83;;;20.30;99.90;;;;;;5094318;28;20059;-50
2022/05/05 12:04:57;;;;;;;489.15;439.27;;;20.00;99.90;;;;;;5092708;28;20039;-50
2022/05/05 12:07:25;;;;;;;445.73;399.23;;;21.50;99.90;;;;;;5093204;28;20100;-52
2022/05/05 12:09:54;;;;;;;99.72;89.10;;;19.90;99.90;;;;;;5092713;28;20043;-51
2022/05/05 12:12:29;;;;;;;12.20;7.30;;;19.90;99.90;;;;;;5094232;28;20038;-46
2022/05/05 12:15:06;;;;;;;11.88;7.93;;;19.80;99.90;;;;;;5094831;28;20042;-47
2022/05/05 12:17:49;;;;;;;10.75;7.45;;;19.60;99.90;;;;;;5092640;28;20040;-47
2022/05/05 12:20:17;;;;;;;11.43;7.63;;;19.50;99.90;;;;;;5092954;28;20066;-49
2022/05/05 12:22:44;;;;;;;11.80;7.70;;;19.70;99.90;;;;;;5092146;28;20146;-50
2022/05/05 12:25:17;;;;;;;68.60;53.25;;;19.80;99.90;;;;;;5093086;28;20357;-47
2022/05/05 12:28:01;;;;;;;349.05;312.30;;;20.00;99.90;;;;;;5091151;28;20027;-46
2022/05/05 12:30:33;;;;;;;604.72;551.05;;;19.80;99.90;;;;;;5092754;28;20757;-48
2022/05/05 12:33:00;;;;;;;;;;;19.90;99.90;;;;;;5094316;28;20131;-46
2022/05/05 12:35:31;;;;;;;703.28;643.03;;;19.60;99.90;;;;;;5092466;28;20741;-45
2022/05/05 12:37:58;;;;;;;765.92;700.45;;;19.80;99.90;;;;;;5093083;28;20031;-48
2022/05/05 12:40:25;;;;;;;684.42;624.95;;;19.80;99.90;;;;;;5091189;28;20135;-45
2022/05/05 12:43:06;;;;;;;763.58;693.78;;;19.70;99.90;;;;;;5093727;28;20128;-48
2022/05/05 12:45:34;;;;;;;671.45;613.70;;;19.50;99.90;;;;;;5092314;28;20040;-46
2022/05/05 12:48:10;;;;;;;742.78;681.83;;;19.50;99.90;;;;;;5091965;28;20043;-48
2022/05/05 12:50:37;;;;;;;618.15;573.53;;;19.80;99.90;;;;;;5091186;28;20035;-51
2022/05/05 13:01:30;;;;;;;644.10;596.28;;;20.90;99.90;;;;;;5093382;28;20444;-47
2022/05/05 13:04:05;;;;;;;679.13;617.08;;;20.40;99.90;;;;;;5093963;28;20032;-46
2022/05/05 13:06:32;;;;;;;578.30;535.63;;;20.20;99.90;;;;;;5092648;28;20040;-46
2022/05/05 13:08:59;;;;;;;537.53;496.00;;;21.00;99.90;;;;;;5092648;28;20050;-50
2022/05/05 13:11:25;;;;;;;548.80;506.38;;;20.00;99.90;;;;;;5092971;28;20149;-46
2022/05/05 13:13:52;;;;;;;563.50;522.28;;;20.80;99.90;;;;;;5091689;28;20036;-49
2022/05/05 13:16:18;;;;;;;418.48;387.98;;;20.00;99.90;;;;;;5093395;28;20694;-46
2022/05/05 13:18:44;;;;;;;568.78;528.55;;;20.00;99.90;;;;;;5092325;28;20043;-45
2022/05/05 13:21:10;;;;;;;496.23;462.55;;;20.00;99.90;;;;;;5093457;28;20396;-45
2022/05/05 13:23:36;;;;;;;549.28;510.20;;;20.20;99.90;;;;;;5093127;28;20512;-47
2022/05/05 13:26:08;;;;;;;502.55;456.08;;;21.30;99.90;;;;;;5091811;28;20036;-49
2022/05/05 13:28:34;;;;;;;564.50;524.88;;;19.90;99.90;;;;;;5091353;28;20244;-49
2022/05/05 13:31:00;;;;;;;547.58;509.60;;;19.90;99.90;;;;;;5093043;28;20031;-47
2022/05/05 13:33:26;;;;;;;594.83;544.95;;;19.60;99.90;;;;;;5093929;28;20705;-49
2022/05/05 13:35:52;;;;;;;455.45;424.23;;;19.60;99.90;;;;;;5093174;28;20031;-49
2022/05/05 13:38:23;;;;;;;462.08;431.15;;;19.80;99.90;;;;;;5092421;28;20039;-48
2022/05/05 13:40:49;;;;;;;575.50;535.63;;;19.70;99.90;;;;;;5091725;28;20157;-47
2022/05/05 13:43:15;;;;;;;499.90;465.80;;;19.70;99.90;;;;;;5091909;28;20300;-45
2022/05/05 13:45:41;;;;;;;378.80;351.67;;;19.60;99.90;;;;;;5092210;28;20039;-46
2022/05/05 13:48:09;;;;;;;373.55;347.48;;;19.60;99.90;;;;;;5091335;28;20083;-47
2022/05/05 13:50:35;;;;;;;392.42;364.83;;;20.40;99.90;;;;;;5090059;28;20051;-46
2022/05/05 13:53:00;;;;;;;621.15;573.03;;;20.10;99.90;;;;;;5091208;28;20035;-45
2022/05/05 13:55:28;;;;;;;652.47;601.35;;;19.60;99.90;;;;;;5092235;28;20043;-45
2022/05/05 13:57:57;;;;;;;387.65;360.55;;;19.50;99.90;;;;;;5092972;28;20031;-47
2022/05/05 14:00:24;;;;;;;572.25;521.38;;;17.60;99.90;;;;;;5090734;28;20442;-47
2022/05/05 14:02:50;;;;;;;483.23;448.63;;;19.50;99.90;;;;;;5091468;28;20032;-45